Time;durP1;ratioP1;P1;durP2;ratioP2;P2;SDS_P1;SDS_P2;PMS_P1;PMS_P2;Temp;Humidity;BMP_temperature;BMP_pressure;BME280_temperature;BME280_humidity;BME280_pressure;Samples;Min_cycle;Max_cycle;Signal;HPM_P1;HPM_P2
2021/12/06 00:01:05;;;;;;;10.90;8.53;;;;;;;4.28;92.80;97359.50;5045212;28;20640;-88
2021/12/06 00:03:38;;;;;;;12.43;9.40;;;;;;;4.30;93.33;97362.81;5058539;28;20671;-88
2021/12/06 00:06:07;;;;;;;12.93;9.40;;;;;;;4.28;91.86;97362.94;5062680;28;20690;-88
2021/12/06 00:08:35;;;;;;;11.60;8.33;;;;;;;4.28;92.68;97365.53;5061820;28;20643;-88
2021/12/06 00:11:08;;;;;;;14.20;10.07;;;;;;;4.27;92.97;97366.44;5056993;28;20616;-88
2021/12/06 00:13:37;;;;;;;11.27;8.60;;;;;;;4.27;92.85;97368.19;5062329;28;21010;-87
2021/12/06 00:16:09;;;;;;;13.60;9.47;;;;;;;4.26;92.88;97367.34;5046670;28;20631;-88
2021/12/06 00:18:37;;;;;;;12.20;8.83;;;;;;;4.26;93.04;97364.75;5061175;28;20636;-88
2021/12/06 00:21:06;;;;;;;12.63;9.27;;;;;;;4.26;92.85;97375.06;5058538;28;21041;-88
2021/12/06 00:23:35;;;;;;;11.60;8.50;;;;;;;4.24;92.60;97371.75;5058553;28;20628;-88
2021/12/06 00:26:05;;;;;;;12.80;8.70;;;;;;;4.22;92.33;97375.31;5061843;28;20620;-88
2021/12/06 00:28:34;;;;;;;13.13;9.37;;;;;;;4.20;92.06;97379.75;5060274;28;21191;-88
2021/12/06 00:31:03;;;;;;;12.87;9.13;;;;;;;4.21;91.98;97371.91;5089925;28;20640;-88
2021/12/06 00:33:32;;;;;;;17.73;9.33;;;;;;;4.21;91.50;97378.84;5063557;28;20639;-88
2021/12/06 00:36:04;;;;;;;12.20;8.50;;;;;;;4.21;91.72;97377.09;5048332;28;20616;-88
2021/12/06 00:38:33;;;;;;;12.30;8.47;;;;;;;4.21;92.43;97386.56;5062039;28;22106;-88
2021/12/06 00:41:05;;;;;;;15.43;8.80;;;;;;;4.20;92.78;97390.88;5045326;28;20641;-88
2021/12/06 00:43:33;;;;;;;13.77;8.97;;;;;;;4.21;93.43;97384.81;5092485;28;20631;-88
2021/12/06 00:46:02;;;;;;;15.00;8.40;;;;;;;4.21;92.97;97392.56;5045169;28;20639;-88
2021/12/06 00:48:30;;;;;;;12.07;8.60;;;;;;;4.21;91.93;97396.91;5055664;28;20684;-88
2021/12/06 00:50:58;;;;;;;14.07;9.23;;;;;;;4.21;92.32;97402.88;5042952;28;20625;-88
2021/12/06 00:53:27;;;;;;;12.23;8.60;;;;;;;4.20;93.21;97403.78;5050408;28;20705;-88
2021/12/06 00:55:56;;;;;;;12.33;8.40;;;;;;;4.21;92.84;97407.22;5052101;28;20637;-88
2021/12/06 00:58:26;;;;;;;12.40;8.90;;;;;;;4.22;93.14;97414.03;5049155;28;20620;-88
2021/12/06 01:00:55;;;;;;;10.80;7.80;;;;;;;4.23;92.62;97420.84;5065425;28;20678;-88
2021/12/06 01:03:27;;;;;;;12.17;9.43;;;;;;;4.21;92.85;97431.25;5061284;28;20631;-88
2021/12/06 01:05:56;;;;;;;12.73;8.90;;;;;;;4.19;91.60;97423.69;5081134;28;20656;-88
2021/12/06 01:08:24;;;;;;;14.13;9.13;;;;;;;4.20;92.46;97433.09;5067555;28;20646;-88
2021/12/06 01:10:55;;;;;;;13.33;8.53;;;;;;;4.17;91.41;97433.25;5067633;28;20632;-88
2021/12/06 01:13:27;;;;;;;11.93;8.80;;;;;;;4.11;92.70;97439.56;5051752;28;20690;-89
2021/12/06 01:15:56;;;;;;;12.53;8.80;;;;;;;4.09;92.43;97449.16;5079952;28;20631;-87
2021/12/06 01:18:26;;;;;;;13.27;9.13;;;;;;;4.09;92.55;97443.13;5061316;28;20714;-87
2021/12/06 01:21:03;;;;;;;10.83;8.00;;;;;;;4.07;93.24;97448.38;5065788;28;20654;-88
2021/12/06 01:23:44;;;;;;;13.23;9.00;;;;;;;4.05;92.95;97452.78;5050309;28;20620;-88
2021/12/06 01:26:38;;;;;;;13.63;9.10;;;;;;;4.07;92.96;97452.72;5068125;28;20638;-88
2021/12/06 01:29:25;;;;;;;12.77;9.10;;;;;;;4.07;93.66;97453.53;5062314;28;21237;-88
2021/12/06 01:32:00;;;;;;;14.27;10.83;;;;;;;4.08;93.20;97460.38;5056185;28;20627;-88
2021/12/06 01:40:01;;;;;;;11.57;8.40;;;;;;;4.07;92.44;97470.78;5065943;28;21218;-88
2021/12/06 01:42:31;;;;;;;13.13;8.33;;;;;;;4.05;92.03;97467.44;5060104;28;20714;-88
2021/12/06 01:45:02;;;;;;;12.90;9.30;;;;;;;3.99;92.93;97478.09;5048335;28;21163;-88
2021/12/06 01:47:35;;;;;;;14.50;9.07;;;;;;;3.95;93.56;97474.00;5059668;28;20642;-87
2021/12/06 01:50:10;;;;;;;12.20;8.83;;;;;;;3.97;93.92;97480.75;5050195;28;20648;-88
2021/12/06 01:52:43;;;;;;;14.60;9.40;;;;;;;3.97;93.17;97477.31;5077284;28;20631;-88
2021/12/06 01:55:15;;;;;;;14.83;9.37;;;;;;;3.99;93.16;97480.66;5045705;28;21272;-88
2021/12/06 01:57:43;;;;;;;15.13;10.43;;;;;;;4.01;93.42;97486.56;5049018;28;20722;-88
2021/12/06 02:00:15;;;;;;;15.47;10.60;;;;;;;4.00;93.32;97488.31;5048887;28;20663;-88
2021/12/06 02:02:43;;;;;;;13.93;9.17;;;;;;;4.02;93.84;97488.25;5064065;28;20717;-88
2021/12/06 02:05:21;;;;;;;18.23;9.70;;;;;;;4.03;93.54;97501.06;5073700;28;20636;-88
2021/12/06 02:07:49;;;;;;;14.37;9.23;;;;;;;4.02;94.16;97498.56;5061890;28;20659;-88
2021/12/06 02:10:19;;;;;;;13.83;9.00;;;;;;;4.00;93.27;97496.06;5077607;28;20662;-88
2021/12/06 02:12:50;;;;;;;14.33;9.90;;;;;;;3.98;94.09;97500.44;5091024;28;20641;-88
2021/12/06 02:15:33;;;;;;;16.30;9.80;;;;;;;3.98;93.68;97499.63;5059770;28;20743;-88
2021/12/06 02:18:08;;;;;;;14.33;9.80;;;;;;;4.01;92.75;97497.72;5044825;28;22301;-88
2021/12/06 02:20:44;;;;;;;17.93;10.13;;;;;;;4.03;92.59;97501.06;5060421;28;20735;-88
2021/12/06 02:23:15;;;;;;;16.00;9.60;;;;;;;4.06;93.28;97502.63;5077786;28;20662;-87
2021/12/06 02:25:43;;;;;;;14.77;9.27;;;;;;;4.05;93.86;97494.06;5039568;28;20680;-88
2021/12/06 02:28:11;;;;;;;14.37;9.80;;;;;;;4.07;93.85;97493.97;5044506;28;20731;-88
2021/12/06 02:30:40;;;;;;;14.20;9.50;;;;;;;4.09;93.54;97498.16;5066594;28;20624;-88
2021/12/06 02:33:09;;;;;;;15.30;9.60;;;;;;;4.11;93.73;97498.09;5050643;28;20634;-88
2021/12/06 02:35:37;;;;;;;16.27;10.00;;;;;;;4.09;93.12;97508.47;5050046;28;20667;-88
2021/12/06 02:38:08;;;;;;;16.03;9.80;;;;;;;4.11;93.03;97508.41;5063004;28;20632;-88
2021/12/06 02:40:40;;;;;;;20.53;10.97;;;;;;;4.12;92.70;97517.78;5079406;28;21039;-88
2021/12/06 02:43:11;;;;;;;19.43;10.93;;;;;;;4.12;93.78;97517.78;5060875;28;20653;-88
2021/12/06 02:45:40;;;;;;;18.40;10.33;;;;;;;4.12;93.40;97531.53;5063209;28;20634;-88
2021/12/06 02:48:12;;;;;;;19.80;10.73;;;;;;;4.11;93.00;97523.88;5059605;28;20671;-88
2021/12/06 02:50:43;;;;;;;17.73;11.23;;;;;;;4.09;92.84;97526.53;5064478;28;20632;-88
2021/12/06 02:53:12;;;;;;;16.77;10.70;;;;;;;4.07;93.87;97527.50;5065136;28;20647;-88
2021/12/06 02:55:43;;;;;;;19.10;9.80;;;;;;;4.08;92.92;97529.19;5064750;28;20635;-88
2021/12/06 02:58:32;;;;;;;14.40;9.80;;;;;;;4.07;93.22;97533.50;5077761;28;21049;-88
2021/12/06 03:01:01;;;;;;;23.03;11.90;;;;;;;4.09;94.14;97536.00;5048056;28;20678;-88
2021/12/06 03:03:31;;;;;;;20.60;11.70;;;;;;;4.10;93.13;97537.69;5047824;28;20683;-88
2021/12/06 03:06:00;;;;;;;20.97;12.23;;;;;;;4.08;92.58;97531.78;5059911;28;21227;-88
2021/12/06 03:08:36;;;;;;;18.60;11.00;;;;;;;4.10;92.62;97540.25;5072177;28;20640;-88
2021/12/06 03:11:07;;;;;;;17.87;10.60;;;;;;;4.12;93.65;97535.84;5058453;28;20635;-88
2021/12/06 03:13:35;;;;;;;23.20;11.97;;;;;;;4.09;92.70;97536.84;5063482;28;20619;-88
2021/12/06 03:16:05;;;;;;;24.40;12.47;;;;;;;4.12;92.86;97548.75;5056536;28;20668;-88
2021/12/06 03:18:35;;;;;;;21.57;10.80;;;;;;;4.12;93.51;97536.69;5047886;28;21372;-88
2021/12/06 03:21:03;;;;;;;22.80;11.63;;;;;;;4.11;92.98;97537.59;5049761;28;20694;-88
2021/12/06 03:23:32;;;;;;;24.43;13.47;;;;;;;4.14;93.24;97544.34;5065191;28;20644;-88
2021/12/06 03:26:01;;;;;;;24.20;13.57;;;;;;;4.12;93.74;97548.75;5042778;28;20644;-88
2021/12/06 03:28:36;;;;;;;25.53;12.70;;;;;;;4.14;93.55;97555.50;5060621;28;20729;-88
2021/12/06 03:31:06;;;;;;;22.80;12.30;;;;;;;4.13;93.56;97558.97;5046280;28;20677;-88
2021/12/06 03:33:36;;;;;;;23.07;13.00;;;;;;;4.12;93.44;97567.66;5075191;28;20625;-88
2021/12/06 03:36:06;;;;;;;23.67;11.73;;;;;;;4.13;93.17;97569.28;5046219;28;20624;-88
2021/12/06 03:38:37;;;;;;;23.83;12.67;;;;;;;4.12;93.20;97556.47;5078774;28;20624;-88
2021/12/06 03:41:07;;;;;;;30.70;13.57;;;;;;;4.09;93.69;97554.06;5064391;28;21214;-88
2021/12/06 03:43:37;;;;;;;25.87;11.90;;;;;;;4.09;93.12;97557.50;5058808;28;20660;-88
2021/12/06 03:46:08;;;;;;;22.40;11.60;;;;;;;4.06;93.25;97557.66;5039650;28;20658;-88
2021/12/06 03:48:37;;;;;;;24.53;12.60;;;;;;;4.07;93.41;97564.44;5060570;28;20656;-88
2021/12/06 03:51:06;;;;;;;24.03;12.07;;;;;;;4.07;92.70;97566.22;5046737;28;21021;-88
2021/12/06 03:53:35;;;;;;;24.10;12.27;;;;;;;4.05;93.04;97571.44;5041240;28;20652;-88
2021/12/06 03:56:04;;;;;;;27.87;12.80;;;;;;;4.02;92.87;97581.09;5060151;28;20719;-88
2021/12/06 03:58:33;;;;;;;29.00;13.20;;;;;;;4.02;93.52;97583.66;5035806;28;20719;-88
2021/12/06 04:01:04;;;;;;;33.20;12.87;;;;;;;4.03;93.43;97575.00;5072576;28;20640;-88
2021/12/06 04:03:36;;;;;;;26.77;13.47;;;;;;;4.01;93.10;97584.56;5048572;28;20774;-88
2021/12/06 04:06:06;;;;;;;24.37;11.40;;;;;;;4.03;92.57;97591.34;5054843;28;20664;-88
2021/12/06 04:08:34;;;;;;;26.50;12.27;;;;;;;4.04;93.73;97592.97;5043136;28;20632;-87
2021/12/06 04:11:04;;;;;;;24.17;12.40;;;;;;;4.06;92.98;97603.22;5045546;28;21003;-88
2021/12/06 04:13:35;;;;;;;23.57;11.33;;;;;;;4.06;93.98;97595.47;5059285;28;21194;-88
2021/12/06 04:16:06;;;;;;;22.70;11.80;;;;;;;4.06;92.83;97600.63;5079650;28;20632;-88
2021/12/06 04:18:38;;;;;;;23.63;11.80;;;;;;;4.04;93.31;97602.47;5061235;28;20628;-88
2021/12/06 04:21:09;;;;;;;25.23;13.33;;;;;;;4.00;93.39;97600.94;5050045;28;20636;-88
2021/12/06 04:23:38;;;;;;;25.30;12.60;;;;;;;3.94;93.47;97606.41;5048795;28;20666;-88
2021/12/06 04:26:07;;;;;;;23.90;12.90;;;;;;;3.94;92.44;97609.00;5060608;28;20715;-88
2021/12/06 04:28:43;;;;;;;18.40;10.57;;;;;;;3.93;93.07;97615.09;5042515;28;21206;-88
2021/12/06 04:31:13;;;;;;;18.13;10.60;;;;;;;3.92;93.47;97619.38;5063606;28;20634;-88
2021/12/06 04:33:41;;;;;;;24.40;12.00;;;;;;;3.94;93.47;97622.75;5062208;28;20635;-88
2021/12/06 04:36:10;;;;;;;20.00;11.23;;;;;;;3.94;93.74;97621.88;5051770;28;20628;-88
2021/12/06 04:38:39;;;;;;;20.58;12.10;;;;;;;3.99;94.33;97630.25;5066871;28;20760;-88
2021/12/06 04:41:07;;;;;;;20.37;11.57;;;;;;;4.03;92.90;97635.19;5082684;28;20665;-88
2021/12/06 04:43:36;;;;;;;16.07;10.23;;;;;;;4.08;93.18;97637.53;5051811;28;20736;-88
2021/12/06 04:46:05;;;;;;;15.50;10.17;;;;;;;4.11;93.48;97635.63;5052928;28;20631;-88
2021/12/06 04:48:35;;;;;;;18.37;10.30;;;;;;;4.14;94.08;97632.88;5063860;28;20686;-88
2021/12/06 04:51:05;;;;;;;16.00;9.83;;;;;;;4.16;92.41;97637.97;5067263;28;20635;-88
2021/12/06 04:53:37;;;;;;;15.57;9.87;;;;;;;4.16;92.99;97631.06;5049591;28;20970;-88
2021/12/06 04:56:12;;;;;;;16.97;10.73;;;;;;;4.16;92.97;97640.56;5046714;28;20716;-88
2021/12/06 04:58:51;;;;;;;16.70;10.17;;;;;;;4.17;92.66;97649.97;5061818;28;20662;-88
2021/12/06 05:01:24;;;;;;;17.70;10.20;;;;;;;4.15;93.11;97656.94;5048099;28;21299;-88
2021/12/06 05:03:54;;;;;;;18.77;10.90;;;;;;;4.17;93.02;97657.72;5050226;28;21039;-88
2021/12/06 05:06:27;;;;;;;22.13;12.10;;;;;;;4.14;92.11;97663.84;5049515;28;20659;-88
2021/12/06 05:08:58;;;;;;;18.70;11.17;;;;;;;4.14;92.00;97671.59;5065379;28;20627;-88
2021/12/06 05:11:30;;;;;;;20.20;11.03;;;;;;;4.12;92.74;97675.16;5062551;28;21189;-87
2021/12/06 05:14:01;;;;;;;16.03;8.90;;;;;;;4.10;92.33;97669.25;5049622;28;20706;-88
2021/12/06 05:16:33;;;;;;;16.37;9.53;;;;;;;4.11;93.42;97679.47;5049975;28;20623;-88
2021/12/06 05:19:04;;;;;;;14.03;9.20;;;;;;;4.09;92.78;97676.16;5063462;28;20995;-88
2021/12/06 05:21:34;;;;;;;16.87;10.27;;;;;;;4.09;93.41;97680.44;5046187;28;20633;-88
2021/12/06 05:24:05;;;;;;;16.47;9.43;;;;;;;4.10;92.47;97682.13;5052426;28;20655;-88
2021/12/06 05:26:34;;;;;;;13.80;9.20;;;;;;;4.11;92.56;97697.53;5063611;28;20694;-88
2021/12/06 05:29:04;;;;;;;13.80;9.40;;;;;;;4.15;92.90;97698.22;5047877;28;20625;-88
2021/12/06 05:31:34;;;;;;;17.83;10.53;;;;;;;4.17;92.28;97704.16;5064949;28;21214;-88
2021/12/06 05:34:09;;;;;;;19.03;10.93;;;;;;;4.16;92.96;97699.88;5069216;28;20735;-87
2021/12/06 05:36:37;;;;;;;17.13;10.67;;;;;;;4.18;93.63;97705.81;5045279;28;20622;-88
2021/12/06 05:39:06;;;;;;;21.40;11.37;;;;;;;4.17;92.66;97717.06;5047479;28;20635;-88
2021/12/06 05:41:34;;;;;;;18.23;10.90;;;;;;;4.17;92.18;97715.28;5063186;28;20996;-88
2021/12/06 05:44:04;;;;;;;15.30;10.10;;;;;;;4.16;92.51;97723.09;5062148;28;20655;-88
2021/12/06 05:46:32;;;;;;;17.37;10.80;;;;;;;4.15;92.30;97730.03;5064725;28;20647;-88
2021/12/06 05:49:00;;;;;;;13.93;9.27;;;;;;;4.15;92.71;97736.91;5064775;28;21131;-88
2021/12/06 05:51:30;;;;;;;18.30;10.37;;;;;;;4.16;93.50;97743.75;5067514;28;20675;-88
2021/12/06 05:53:58;;;;;;;15.07;9.50;;;;;;;4.18;92.97;97747.06;5062479;28;20639;-88
2021/12/06 05:56:27;;;;;;;15.47;9.50;;;;;;;4.19;93.78;97749.59;5080202;28;20628;-88
2021/12/06 05:58:55;;;;;;;17.10;10.57;;;;;;;4.20;92.86;97746.94;5094542;28;21221;-87
2021/12/06 06:01:29;;;;;;;17.70;10.50;;;;;;;4.21;93.56;97748.59;5066284;28;20638;-87
2021/12/06 06:04:00;;;;;;;17.60;10.60;;;;;;;4.22;93.22;97752.88;5049160;28;20656;-88
2021/12/06 06:06:31;;;;;;;15.97;10.43;;;;;;;4.26;92.76;97756.13;5046795;28;20652;-87
2021/12/06 06:09:04;;;;;;;22.20;12.30;;;;;;;4.26;92.33;97764.69;5063587;28;20642;-87
2021/12/06 06:11:34;;;;;;;16.80;10.63;;;;;;;4.27;92.93;97762.97;5096388;27;20639;-88
2021/12/06 06:14:02;;;;;;;17.47;10.27;;;;;;;4.28;92.57;97773.22;5062812;28;20631;-87
2021/12/06 06:16:35;;;;;;;16.03;10.33;;;;;;;4.31;91.94;97774.78;5063038;28;20715;-88
2021/12/06 06:19:04;;;;;;;18.20;9.90;;;;;;;4.27;92.46;97779.28;5065653;28;20747;-87
2021/12/06 06:21:34;;;;;;;16.97;10.90;;;;;;;4.26;92.69;97782.75;5066842;28;20682;-87
2021/12/06 06:24:02;;;;;;;15.90;9.60;;;;;;;4.24;92.51;97789.75;5048918;28;20643;-88
2021/12/06 06:26:30;;;;;;;14.47;9.90;;;;;;;4.24;93.15;97794.09;5065512;28;21019;-87
2021/12/06 06:28:58;;;;;;;16.20;9.70;;;;;;;4.23;92.08;97787.25;5064480;28;20639;-87
2021/12/06 06:31:26;;;;;;;13.47;9.20;;;;;;;4.26;92.50;97793.06;5064798;28;20627;-87
2021/12/06 06:33:55;;;;;;;16.27;10.20;;;;;;;4.23;92.97;97788.06;5065543;28;20624;-88
2021/12/06 06:36:23;;;;;;;16.20;10.17;;;;;;;4.24;92.13;97794.09;5059799;28;20633;-87
2021/12/06 06:38:53;;;;;;;17.03;10.13;;;;;;;4.27;92.27;97807.66;5057021;28;20623;-87
2021/12/06 06:41:21;;;;;;;15.47;9.63;;;;;;;4.28;93.12;97804.19;5064057;28;20636;-87
2021/12/06 06:43:50;;;;;;;15.00;9.93;;;;;;;4.30;92.80;97815.25;5063297;28;20656;-88
2021/12/06 06:46:18;;;;;;;13.13;8.97;;;;;;;4.31;92.43;97816.09;5052492;28;21200;-87
2021/12/06 06:48:46;;;;;;;19.00;10.80;;;;;;;4.31;93.67;97819.50;5044684;28;20671;-87
2021/12/06 06:51:14;;;;;;;17.00;9.87;;;;;;;4.29;93.10;97825.66;5059488;28;23281;-87
2021/12/06 06:53:43;;;;;;;19.17;11.10;;;;;;;4.29;92.62;97816.16;5048219;28;20904;-87
2021/12/06 06:56:12;;;;;;;14.80;9.97;;;;;;;4.32;93.38;97828.91;5048510;28;20771;-87
2021/12/06 06:58:40;;;;;;;16.83;10.90;;;;;;;4.34;93.54;97842.56;5065593;28;20625;-87
2021/12/06 07:01:09;;;;;;;18.23;10.90;;;;;;;4.32;92.28;97835.81;5064551;28;20629;-87
2021/12/06 07:03:37;;;;;;;14.50;9.80;;;;;;;4.32;92.91;97841.00;5063176;28;20632;-87
2021/12/06 07:06:06;;;;;;;16.27;9.77;;;;;;;4.35;92.85;97841.66;5078772;28;20647;-87
2021/12/06 07:08:34;;;;;;;13.87;9.00;;;;;;;4.37;92.49;97850.16;5091753;28;20636;-87
2021/12/06 07:11:05;;;;;;;15.90;9.93;;;;;;;4.39;92.06;97850.09;5044616;28;20632;-88
2021/12/06 07:13:37;;;;;;;15.90;9.60;;;;;;;4.41;92.47;97843.13;5059099;28;20913;-88
2021/12/06 07:16:07;;;;;;;15.37;9.20;;;;;;;4.42;92.69;97849.94;5061236;28;20636;-88
2021/12/06 07:18:36;;;;;;;14.93;8.90;;;;;;;4.40;92.55;97854.34;5047314;28;21257;-87
2021/12/06 07:21:04;;;;;;;13.93;8.30;;;;;;;4.39;92.56;97865.56;5051128;28;20705;-87
2021/12/06 07:23:38;;;;;;;16.40;9.60;;;;;;;4.39;91.83;97863.00;5050061;28;20642;-87
2021/12/06 07:26:06;;;;;;;16.10;8.90;;;;;;;4.38;93.12;97869.09;5045517;28;20667;-89
2021/12/06 07:28:36;;;;;;;16.43;9.70;;;;;;;4.39;92.26;97868.16;5062562;28;20635;-89
2021/12/06 07:31:06;;;;;;;15.50;9.57;;;;;;;4.41;93.11;97868.94;5077158;28;20646;-89
2021/12/06 07:33:34;;;;;;;14.87;9.03;;;;;;;4.41;92.72;97869.75;5061537;28;20742;-89
2021/12/06 07:36:04;;;;;;;19.17;11.43;;;;;;;4.43;93.22;97873.09;5093873;28;20644;-88
2021/12/06 07:38:34;;;;;;;18.50;11.27;;;;;;;4.45;92.61;97881.63;5064132;28;20647;-87
2021/12/06 07:41:03;;;;;;;14.80;9.17;;;;;;;4.49;92.63;97882.31;5063138;28;20642;-87
2021/12/06 07:43:31;;;;;;;13.30;8.87;;;;;;;4.50;92.43;97874.50;5062574;28;20671;-87
2021/12/06 07:46:02;;;;;;;15.77;9.97;;;;;;;4.48;92.44;97876.31;5048684;28;20656;-88
2021/12/06 07:48:30;;;;;;;17.13;10.00;;;;;;;4.49;93.18;97882.31;5071311;28;21035;-87
2021/12/06 07:51:00;;;;;;;21.43;11.80;;;;;;;4.51;92.10;97885.63;5067546;28;20631;-87
2021/12/06 07:53:32;;;;;;;14.93;9.63;;;;;;;4.51;93.49;97890.81;5061420;28;21070;-86
2021/12/06 07:56:01;;;;;;;21.43;12.83;;;;;;;4.52;93.34;97890.72;5054817;28;20621;-87
2021/12/06 07:58:29;;;;;;;23.30;13.47;;;;;;;4.54;93.43;97896.69;5058240;28;20646;-85
2021/12/06 08:00:58;;;;;;;24.57;13.93;;;;;;;4.57;92.64;97893.94;5057679;28;20638;-87
2021/12/06 08:03:30;;;;;;;21.63;13.83;;;;;;;4.60;93.28;97898.97;5062042;28;20667;-86
2021/12/06 08:06:01;;;;;;;26.00;14.70;;;;;;;4.61;93.65;97892.88;5043723;28;20675;-87
2021/12/06 08:08:31;;;;;;;26.90;14.37;;;;;;;4.63;92.74;97898.81;5060841;28;21098;-91
2021/12/06 08:11:02;;;;;;;24.07;13.60;;;;;;;4.65;92.70;97899.56;5056567;28;20639;-89
2021/12/06 08:13:33;;;;;;;21.57;12.00;;;;;;;4.67;92.17;97902.91;5040999;28;20629;-87
2021/12/06 08:16:07;;;;;;;21.97;12.73;;;;;;;4.68;92.38;97905.41;5060496;28;20998;-88
2021/12/06 08:18:36;;;;;;;24.70;14.37;;;;;;;4.69;92.84;97907.09;5061877;28;20670;-88
2021/12/06 08:21:06;;;;;;;24.67;14.13;;;;;;;4.70;93.25;97910.50;5064062;28;20639;-88
2021/12/06 08:23:34;;;;;;;25.27;13.97;;;;;;;4.69;93.90;97907.09;5061966;28;20719;-88
2021/12/06 08:26:05;;;;;;;27.60;14.50;;;;;;;4.73;92.69;97907.78;5078801;28;20660;-88
2021/12/06 08:28:34;;;;;;;25.10;13.90;;;;;;;4.73;92.76;97911.19;5059854;28;21008;-88
2021/12/06 08:31:03;;;;;;;24.40;14.03;;;;;;;4.74;93.17;97919.78;5036968;28;20636;-89
2021/12/06 08:33:32;;;;;;;26.43;14.30;;;;;;;4.76;92.77;97925.72;5048358;28;20689;-89
2021/12/06 08:36:05;;;;;;;24.93;14.43;;;;;;;4.81;93.73;97923.72;5044784;28;21057;-89
2021/12/06 08:38:35;;;;;;;26.23;15.20;;;;;;;4.83;94.02;97930.50;5046832;28;21256;-89
2021/12/06 08:41:07;;;;;;;26.03;14.83;;;;;;;4.85;93.66;97920.94;5075132;28;20635;-90
2021/12/06 08:43:35;;;;;;;22.43;14.67;;;;;;;4.89;92.68;97931.97;5041145;28;20639;-89
2021/12/06 08:46:07;;;;;;;24.00;14.30;;;;;;;4.92;92.89;97937.00;5074138;28;20651;-90
2021/12/06 08:48:37;;;;;;;24.53;14.53;;;;;;;4.92;93.40;97935.22;5063240;28;20647;-89
2021/12/06 08:51:10;;;;;;;27.00;15.20;;;;;;;4.95;93.71;97935.09;5092825;28;20636;-90
2021/12/06 08:53:40;;;;;;;28.63;17.30;;;;;;;5.01;93.39;97933.97;5060918;28;20723;-89
2021/12/06 08:56:08;;;;;;;44.83;27.77;;;;;;;4.99;92.98;97938.34;5076610;28;20622;-89
2021/12/06 08:58:37;;;;;;;36.30;22.70;;;;;;;4.97;93.10;97945.34;5046053;28;21288;-89
2021/12/06 09:01:06;;;;;;;50.40;27.67;;;;;;;4.99;93.85;97951.25;5058512;28;20633;-89
2021/12/06 09:03:35;;;;;;;30.60;18.40;;;;;;;5.00;93.06;97950.38;5060820;28;20627;-89
2021/12/06 09:06:08;;;;;;;32.97;19.53;;;;;;;5.01;93.64;97945.13;5087487;28;21227;-89
2021/12/06 09:08:37;;;;;;;29.03;18.20;;;;;;;5.03;93.70;97956.19;5077996;28;21223;-89
2021/12/06 09:11:06;;;;;;;921.47;386.80;;;;;;;5.05;92.93;97958.72;5044662;28;20632;-89
2021/12/06 09:13:34;;;;;;;44.97;24.10;;;;;;;5.05;93.40;97954.41;5043288;28;20711;-89
2021/12/06 09:16:05;;;;;;;33.47;20.87;;;;;;;5.08;92.78;97961.97;5082976;28;20642;-89
2021/12/06 09:18:37;;;;;;;35.00;22.20;;;;;;;5.10;92.99;97965.34;5069763;28;20642;-89
2021/12/06 09:21:10;;;;;;;37.07;21.37;;;;;;;5.12;92.50;97954.94;5101133;28;20635;-89
2021/12/06 09:23:38;;;;;;;37.67;22.83;;;;;;;5.12;92.97;97960.94;5050287;28;21183;-89
2021/12/06 09:26:07;;;;;;;42.33;23.73;;;;;;;5.15;93.24;97969.34;5066607;28;21107;-89
2021/12/06 09:28:36;;;;;;;33.90;22.10;;;;;;;5.13;93.18;97966.03;5048975;28;20619;-89
2021/12/06 09:31:05;;;;;;;38.87;22.20;;;;;;;5.13;93.05;97960.84;5065632;28;20675;-90
2021/12/06 09:33:34;;;;;;;52.90;32.00;;;;;;;5.15;93.42;97969.34;5064968;28;20690;-89
2021/12/06 09:36:03;;;;;;;38.37;22.33;;;;;;;5.20;92.67;97976.88;5063381;28;20714;-89
2021/12/06 09:38:38;;;;;;;32.40;20.00;;;;;;;5.19;92.78;97970.06;5041518;28;20632;-89
2021/12/06 09:41:10;;;;;;;27.83;17.17;;;;;;;5.22;92.69;97975.91;5061460;28;20638;-89
2021/12/06 09:43:39;;;;;;;30.10;17.60;;;;;;;5.22;92.21;97972.50;5048081;28;20763;-89
2021/12/06 09:46:08;;;;;;;29.90;17.37;;;;;;;5.24;92.42;97974.06;5049560;28;20687;-90
2021/12/06 09:48:37;;;;;;;32.47;17.40;;;;;;;5.25;92.32;97974.94;5046068;28;20650;-90
2021/12/06 09:51:09;;;;;;;31.60;17.83;;;;;;;5.26;91.82;97972.28;5064306;28;20746;-91
2021/12/06 09:53:41;;;;;;;27.10;16.50;;;;;;;5.23;91.53;97967.25;5065686;28;20624;-91
2021/12/06 09:56:12;;;;;;;28.00;18.30;;;;;;;5.19;91.78;97970.88;5049292;28;20722;-91
2021/12/06 09:58:40;;;;;;;27.97;16.50;;;;;;;5.20;91.58;97966.53;5067538;28;20628;-91
2021/12/06 10:01:12;;;;;;;30.10;18.83;;;;;;;5.25;91.82;97967.19;5067618;28;20623;-88
2021/12/06 10:03:41;;;;;;;63.10;32.23;;;;;;;5.23;92.40;97971.56;5061104;28;21967;-89
2021/12/06 10:06:09;;;;;;;27.53;18.07;;;;;;;5.26;91.85;97968.84;5060930;28;20680;-90
2021/12/06 10:08:44;;;;;;;30.97;18.73;;;;;;;5.30;92.58;97976.34;5059438;28;20666;-90
2021/12/06 10:11:14;;;;;;;22.73;15.10;;;;;;;5.30;91.75;97972.94;5064753;28;20730;-90
2021/12/06 10:13:43;;;;;;;25.20;17.00;;;;;;;5.35;91.70;97971.81;5060282;28;20628;-89
2021/12/06 10:16:12;;;;;;;24.30;16.10;;;;;;;5.37;92.21;97969.97;5060861;28;20665;-90
2021/12/06 10:18:41;;;;;;;23.90;16.77;;;;;;;5.40;91.91;97969.84;5046664;28;21290;-88
2021/12/06 10:21:11;;;;;;;25.23;16.13;;;;;;;5.38;91.50;97966.50;5061765;28;21181;-91
2021/12/06 10:23:42;;;;;;;23.10;15.53;;;;;;;5.38;91.43;97961.31;5062661;28;21289;-91
2021/12/06 10:26:14;;;;;;;23.70;14.83;;;;;;;5.42;91.95;97965.41;5057284;28;20659;-91
2021/12/06 10:28:44;;;;;;;25.40;16.30;;;;;;;5.43;91.24;97967.09;5062427;28;20632;-91
2021/12/06 10:31:14;;;;;;;26.60;18.10;;;;;;;5.43;91.72;97959.34;5079388;28;20636;-91
2021/12/06 10:33:45;;;;;;;27.60;16.70;;;;;;;5.45;91.26;97952.31;5044558;28;20629;-91
2021/12/06 10:36:16;;;;;;;25.37;16.83;;;;;;;5.46;90.93;97958.31;5058300;28;21191;-92
2021/12/06 10:38:53;;;;;;;26.20;15.90;;;;;;;5.47;91.10;97940.16;5050483;28;21133;-92
2021/12/06 10:41:23;;;;;;;26.50;16.90;;;;;;;5.53;91.47;97945.00;5065023;28;20632;-92
2021/12/06 10:43:53;;;;;;;27.20;17.47;;;;;;;5.60;91.85;97953.31;5056036;28;20617;-92
2021/12/06 10:46:21;;;;;;;26.77;17.70;;;;;;;5.63;91.77;97947.06;5063262;28;20664;-92
2021/12/06 10:48:51;;;;;;;23.67;16.10;;;;;;;5.65;91.42;97939.22;5063352;28;20636;-92
2021/12/06 10:51:20;;;;;;;25.80;15.60;;;;;;;5.67;90.69;97940.81;5054640;28;20628;-91
2021/12/06 10:53:59;;;;;;;22.43;15.77;;;;;;;5.66;90.43;97948.66;5060328;28;21063;-89
2021/12/06 10:56:37;;;;;;;25.60;17.03;;;;;;;5.66;91.04;97951.25;5051415;28;20859;-89
2021/12/06 10:59:15;;;;;;;24.07;16.63;;;;;;;5.68;90.59;97949.41;5058091;28;21251;-88
2021/12/06 11:01:44;;;;;;;24.73;17.47;;;;;;;5.68;90.40;97949.41;5046568;28;20653;-92
2021/12/06 11:04:16;;;;;;;25.10;16.70;;;;;;;5.68;90.38;97945.09;5061905;28;20632;-92
2021/12/06 11:06:45;;;;;;;24.00;16.67;;;;;;;5.74;90.00;97938.78;5048838;28;20668;-92
2021/12/06 11:09:18;;;;;;;22.60;16.10;;;;;;;5.78;90.40;97940.28;5063895;28;21246;-92
2021/12/06 11:11:49;;;;;;;25.53;17.63;;;;;;;5.80;90.63;97941.03;5067220;28;20635;-92
2021/12/06 11:14:21;;;;;;;24.53;16.83;;;;;;;5.78;90.19;97940.28;5049019;28;20728;-93
2021/12/06 11:16:53;;;;;;;26.00;17.87;;;;;;;5.80;90.45;97928.09;5049125;28;21263;-94
2021/12/06 11:19:23;;;;;;;26.37;17.77;;;;;;;5.79;90.34;97923.88;5049701;28;20664;-93
2021/12/06 11:21:52;;;;;;;25.93;16.23;;;;;;;5.85;90.27;97931.28;5061580;28;20621;-94
2021/12/06 11:24:24;;;;;;;22.53;15.40;;;;;;;5.84;90.00;97933.03;5063510;28;20636;-92
2021/12/06 11:26:58;;;;;;;22.10;16.07;;;;;;;5.83;90.53;97935.72;5046674;28;20651;-91
2021/12/06 11:29:30;;;;;;;24.17;16.40;;;;;;;5.85;90.44;97939.91;5056783;28;20624;-92
2021/12/06 11:32:04;;;;;;;21.63;15.13;;;;;;;5.87;90.46;97945.00;5058005;28;20636;-90
2021/12/06 11:34:36;;;;;;;23.93;16.17;;;;;;;5.79;89.89;97935.03;5059858;28;20610;-88
2021/12/06 11:37:11;;;;;;;24.67;16.83;;;;;;;5.66;90.33;97938.31;5038049;28;21035;-89
2021/12/06 11:39:41;;;;;;;18.53;13.37;;;;;;;5.63;90.93;97930.72;5057294;28;21227;-89
2021/12/06 11:42:15;;;;;;;24.17;14.37;;;;;;;5.59;91.17;97933.53;5058256;28;20735;-91
2021/12/06 11:44:43;;;;;;;30.20;20.63;;;;;;;5.61;91.42;97930.78;5046387;28;20632;-91
2021/12/06 11:47:14;;;;;;;24.27;17.00;;;;;;;5.61;91.94;97932.53;5044215;28;20652;-92